ADDS METAR Data INFO
IDs: Format: Raw Decoded Include TAF

Data at: 2019 UTC 18 Jul 2018

KTRK 181945Z 00000KT 10SM FU SKC 31/01 A3031
KTRK 181900Z 17004KT 10SM FU SKC 29/02 A3032
KTRK 181745Z 34004KT 10SM FU SKC 25/06 A3033
KTRK 181650Z 00000KT 10SM FU SKC 20/06 A3034
KTRK 181545Z 00000KT 10SM FU SKC 16/05 A3035
KTRK 181445Z 00000KT 10SM SKC 11/04 A3035
KTRK 181345Z 00000KT 10SM SKC 06/04 A3035
KTRK 181335Z AUTO 00000KT 10SM CLR 05/03 A3035 RMK AO2
KTRK 181315Z AUTO 00000KT 10SM CLR 06/03 A3035 RMK AO2
KTRK 181255Z AUTO 00000KT 10SM CLR 05/03 A3034 RMK AO2
KTRK 181235Z AUTO 00000KT 10SM CLR 06/03 A3034 RMK AO2
KTRK 181215Z AUTO 00000KT 10SM CLR 05/05 A3034 RMK AO2
KTRK 181155Z AUTO 00000KT 10SM CLR 06/05 A3034 RMK AO2
KTRK 181135Z AUTO 00000KT 10SM CLR 06/05 A3034 RMK AO2
KTRK 181115Z AUTO 00000KT 10SM CLR 05/04 A3034 RMK AO2
KTRK 181055Z AUTO 00000KT 10SM CLR 07/06 A3034 RMK AO2
KTRK 181035Z AUTO 00000KT 10SM CLR 07/05 A3033 RMK AO2
KTRK 181015Z AUTO 00000KT 10SM CLR 06/03 A3034 RMK AO2
KTRK 180955Z AUTO 00000KT 10SM CLR 07/04 A3034 RMK AO2
KTRK 180935Z AUTO 00000KT 10SM CLR 08/04 A3034 RMK AO2
KTRK 180915Z AUTO 00000KT 10SM CLR 08/03 A3034 RMK AO2
KTRK 180855Z AUTO 00000KT 10SM CLR 07/03 A3034 RMK AO2
KTRK 180835Z AUTO 00000KT 10SM CLR 11/05 A3034 RMK AO2
KTRK 180815Z AUTO 00000KT 10SM CLR 08/04 A3033 RMK AO2
KTRK 180755Z AUTO 17003KT 10SM CLR 09/06 A3034 RMK AO2
KTRK 180735Z AUTO 00000KT 10SM CLR 11/05 A3033 RMK AO2
KTRK 180715Z AUTO 00000KT 10SM CLR 12/05 A3033 RMK AO2
KTRK 180655Z AUTO 00000KT 10SM CLR 12/06 A3032 RMK AO2
KTRK 180635Z AUTO 00000KT 10SM CLR 12/08 A3032 RMK AO2
KTRK 180615Z AUTO 00000KT 10SM CLR 14/06 A3032 RMK AO2
KTRK 180555Z AUTO 19003KT 10SM CLR 13/06 A3031 RMK AO2
KTRK 180535Z AUTO 15003KT 10SM CLR 12/06 A3031 RMK AO2
KTRK 180515Z AUTO 00000KT 10SM CLR 16/06 A3031 RMK AO2
KTRK 180455Z AUTO 12003KT 10SM CLR 16/07 A3031 RMK AO2
KTRK 180435Z AUTO 13003KT 10SM CLR 15/07 A3030 RMK AO2
KTRK 180415Z AUTO 14005KT 10SM CLR 17/07 A3029 RMK AO2
KTRK 180355Z AUTO 12004KT 10SM CLR 18/07 A3029 RMK AO2
KTRK 180335Z AUTO 26004KT 10SM CLR 22/07 A3029 RMK AO2
KTRK 180315Z AUTO 28006KT 10SM CLR 25/07 A3029 RMK AO2
KTRK 180255Z AUTO 26003KT 10SM CLR 25/06 A3029 RMK AO2
KTRK 180235Z AUTO 27006KT 10SM CLR 26/06 A3028 RMK AO2
KTRK 180215Z AUTO 28009KT 10SM CLR 27/06 A3027 RMK AO2
KTRK 180155Z AUTO 28010KT 10SM CLR 27/05 A3027 RMK AO2
KTRK 180135Z AUTO 27009KT 10SM CLR 28/05 A3026 RMK AO2
KTRK 180115Z AUTO 26007KT 10SM CLR 29/04 A3026 RMK AO2
KTRK 180045Z 26009KT 10SM -HZ SKC 30/04 A3026
KTRK 172145Z 27012KT 10SM -HZ SKC 32/01 A3028
KTRK 171955Z 13007KT 10SM -HZ SKC 29/06 A3029
KTRK 171845Z 10004KT 10SM -HZ SKC 28/08 A3031
KTRK 171745Z 01004KT 10SM -HZ SKC 24/07 A3032
KTRK 171550Z 00000KT 10SM -HZ SKC 16/06 A3034
KTRK 171445Z 00000KT 10SM -HZ SKC 12/06 A3034
KTRK 171345Z 00000KT 10SM -HZ SKC 08/05 A3034
KTRK 171335Z AUTO 00000KT 10SM CLR 07/05 A3034 RMK AO2
KTRK 171315Z AUTO 00000KT 10SM CLR 05/03 A3033 RMK AO2
KTRK 171255Z AUTO 00000KT 10SM CLR 07/04 A3033 RMK AO2
KTRK 171235Z AUTO 00000KT 10SM CLR 06/04 A3032 RMK AO2
KTRK 171215Z AUTO 00000KT 10SM CLR 05/02 A3032 RMK AO2
KTRK 171155Z AUTO 00000KT 10SM CLR 08/04 A3032 RMK AO2
KTRK 171135Z AUTO 00000KT 10SM CLR 07/04 A3032 RMK AO2
KTRK 171115Z AUTO 00000KT 10SM CLR 08/05 A3032 RMK AO2
KTRK 171055Z AUTO 00000KT 10SM CLR 07/05 A3032 RMK AO2
KTRK 171035Z AUTO 00000KT 10SM CLR 08/05 A3032 RMK AO2
KTRK 171015Z AUTO 00000KT 10SM SCT060 08/05 A3032 RMK AO2
KTRK 170955Z AUTO 00000KT 10SM OVC060 09/05 A3032 RMK AO2
KTRK 170935Z AUTO 00000KT 10SM OVC070 08/05 A3032 RMK AO2
KTRK 170915Z AUTO 00000KT 10SM OVC070 08/04 A3031 RMK AO2
KTRK 170855Z AUTO 00000KT 10SM BKN070 11/04 A3031 RMK AO2
KTRK 170835Z AUTO 00000KT 10SM SCT070 10/05 A3031 RMK AO2